sensor_id;sensor_type;location;lat;lon;timestamp;temperature;humidity
14775;DHT22;7479;47.042;15.160;2023-03-01T08:20:27;2.80;99.90
14775;DHT22;7479;47.042;15.160;2023-03-01T08:36:29;3.00;99.90
14775;DHT22;7479;47.042;15.160;2023-03-01T08:41:25;3.20;99.90
14775;DHT22;7479;47.042;15.160;2023-03-01T09:12:36;3.30;99.90
14775;DHT22;7479;47.042;15.160;2023-03-01T09:17:30;3.40;99.90
14775;DHT22;7479;47.042;15.160;2023-03-01T09:22:23;3.60;99.90
14775;DHT22;7479;47.042;15.160;2023-03-01T09:27:17;3.90;99.90
14775;DHT22;7479;47.042;15.160;2023-03-01T09:32:12;4.00;99.90
14775;DHT22;7479;47.042;15.160;2023-03-01T09:37:06;4.00;99.90
14775;DHT22;7479;47.042;15.160;2023-03-01T09:42:03;4.20;99.90
14775;DHT22;7479;47.042;15.160;2023-03-01T09:46:57;4.20;99.30
14775;DHT22;7479;47.042;15.160;2023-03-01T09:51:59;4.30;99.50
14775;DHT22;7479;47.042;15.160;2023-03-01T09:57:06;4.50;98.90
14775;DHT22;7479;47.042;15.160;2023-03-01T10:02:17;4.50;98.90
14775;DHT22;7479;47.042;15.160;2023-03-01T10:07:25;4.50;98.70
14775;DHT22;7479;47.042;15.160;2023-03-01T10:12:23;4.40;98.00
14775;DHT22;7479;47.042;15.160;2023-03-01T10:17:25;4.40;98.80
14775;DHT22;7479;47.042;15.160;2023-03-01T10:22:26;4.50;98.10
14775;DHT22;7479;47.042;15.160;2023-03-01T10:27:23;4.50;98.30
14775;DHT22;7479;47.042;15.160;2023-03-01T10:32:18;4.40;98.40
14775;DHT22;7479;47.042;15.160;2023-03-01T10:37:17;4.40;99.00
14775;DHT22;7479;47.042;15.160;2023-03-01T10:42:25;4.40;99.00
14775;DHT22;7479;47.042;15.160;2023-03-01T11:39:24;4.10;99.10
14775;DHT22;7479;47.042;15.160;2023-03-01T11:44:24;4.10;99.30
14775;DHT22;7479;47.042;15.160;2023-03-01T11:49:40;4.30;99.20
14775;DHT22;7479;47.042;15.160;2023-03-01T11:54:52;4.50;99.10
14775;DHT22;7479;47.042;15.160;2023-03-01T12:12:57;4.50;98.60
14775;DHT22;7479;47.042;15.160;2023-03-01T12:24:16;4.40;98.70
14775;DHT22;7479;47.042;15.160;2023-03-01T12:29:25;4.60;99.10
14775;DHT22;7479;47.042;15.160;2023-03-01T12:34:42;4.90;98.60
14775;DHT22;7479;47.042;15.160;2023-03-01T12:39:51;5.10;98.20
14775;DHT22;7479;47.042;15.160;2023-03-01T12:45:06;5.00;98.30
14775;DHT22;7479;47.042;15.160;2023-03-01T12:50:14;5.20;98.40
14775;DHT22;7479;47.042;15.160;2023-03-01T12:55:23;5.20;98.20
14775;DHT22;7479;47.042;15.160;2023-03-01T13:00:27;5.30;98.20
14775;DHT22;7479;47.042;15.160;2023-03-01T13:05:29;5.20;98.60
14775;DHT22;7479;47.042;15.160;2023-03-01T13:10:39;5.20;98.60
14775;DHT22;7479;47.042;15.160;2023-03-01T13:15:40;5.50;98.70
14775;DHT22;7479;47.042;15.160;2023-03-01T13:20:45;5.60;98.00
14775;DHT22;7479;47.042;15.160;2023-03-01T13:37:10;5.60;98.20
